sensor_id;sensor_type;location;lat;lon;timestamp;pressure;altitude;pressure_sealevel;temperature;humidity
3102;BME280;1561;42.666;23.392;2022-10-03T00:05:35;95222.91;;;11.25;100.00
3102;BME280;1561;42.666;23.392;2022-10-03T00:08:18;95223.69;;;11.46;100.00
3102;BME280;1561;42.666;23.392;2022-10-03T00:11:00;95212.63;;;11.16;100.00
3102;BME280;1561;42.666;23.392;2022-10-03T00:13:42;95199.78;;;11.06;100.00
3102;BME280;1561;42.666;23.392;2022-10-03T00:16:25;95211.31;;;11.21;100.00
3102;BME280;1561;42.666;23.392;2022-10-03T00:19:05;95205.00;;;11.25;100.00
3102;BME280;1561;42.666;23.392;2022-10-03T00:21:47;95185.84;;;11.50;100.00
3102;BME280;1561;42.666;23.392;2022-10-03T00:24:25;95115.69;;;10.73;100.00
3102;BME280;1561;42.666;23.392;2022-10-03T00:27:07;95190.97;;;11.20;100.00
3102;BME280;1561;42.666;23.392;2022-10-03T00:29:50;95180.84;;;11.09;100.00
3102;BME280;1561;42.666;23.392;2022-10-03T00:32:47;95192.81;;;11.08;100.00
3102;BME280;1561;42.666;23.392;2022-10-03T00:35:34;95184.31;;;10.98;100.00
3102;BME280;1561;42.666;23.392;2022-10-03T00:38:21;95128.94;;;10.58;100.00
3102;BME280;1561;42.666;23.392;2022-10-03T00:41:28;95191.78;;;10.90;100.00
3102;BME280;1561;42.666;23.392;2022-10-03T00:44:20;95190.66;;;10.83;100.00
3102;BME280;1561;42.666;23.392;2022-10-03T00:47:16;95202.44;;;10.75;100.00
3102;BME280;1561;42.666;23.392;2022-10-03T00:53:07;95204.19;;;10.74;100.00
3102;BME280;1561;42.666;23.392;2022-10-03T00:55:51;95176.63;;;10.57;100.00
3102;BME280;1561;42.666;23.392;2022-10-03T00:58:31;95195.38;;;10.47;100.00
3102;BME280;1561;42.666;23.392;2022-10-03T01:01:22;95214.91;;;10.48;100.00
3102;BME280;1561;42.666;23.392;2022-10-03T01:04:02;95196.09;;;10.49;100.00
3102;BME280;1561;42.666;23.392;2022-10-03T01:06:51;95204.91;;;10.45;100.00
3102;BME280;1561;42.666;23.392;2022-10-03T01:09:34;95183.56;;;10.46;100.00
3102;BME280;1561;42.666;23.392;2022-10-03T01:15:07;95177.44;;;10.37;100.00
3102;BME280;1561;42.666;23.392;2022-10-03T01:17:58;95133.13;;;10.07;100.00
3102;BME280;1561;42.666;23.392;2022-10-03T01:20:44;95179.88;;;10.39;100.00
3102;BME280;1561;42.666;23.392;2022-10-03T01:23:48;95185.91;;;10.38;100.00
3102;BME280;1561;42.666;23.392;2022-10-03T01:26:36;95179.06;;;10.38;100.00
3102;BME280;1561;42.666;23.392;2022-10-03T01:29:20;95170.63;;;10.58;100.00
3102;BME280;1561;42.666;23.392;2022-10-03T01:32:12;95165.50;;;10.58;100.00
3102;BME280;1561;42.666;23.392;2022-10-03T01:34:47;95166.16;;;10.81;100.00
3102;BME280;1561;42.666;23.392;2022-10-03T01:37:25;95164.69;;;10.78;100.00
3102;BME280;1561;42.666;23.392;2022-10-03T01:40:06;95163.28;;;10.65;100.00
3102;BME280;1561;42.666;23.392;2022-10-03T01:42:47;95170.75;;;10.57;100.00
3102;BME280;1561;42.666;23.392;2022-10-03T01:45:42;95161.94;;;10.50;100.00
3102;BME280;1561;42.666;23.392;2022-10-03T01:48:21;95147.41;;;10.91;100.00
3102;BME280;1561;42.666;23.392;2022-10-03T01:51:00;95158.00;;;10.87;100.00
3102;BME280;1561;42.666;23.392;2022-10-03T01:53:42;95157.91;;;10.98;100.00
3102;BME280;1561;42.666;23.392;2022-10-03T01:56:20;95151.38;;;10.84;100.00
3102;BME280;1561;42.666;23.392;2022-10-03T01:58:59;95143.09;;;10.92;100.00
3102;BME280;1561;42.666;23.392;2022-10-03T02:01:38;95151.44;;;10.94;100.00
3102;BME280;1561;42.666;23.392;2022-10-03T02:04:30;95153.63;;;10.98;100.00
3102;BME280;1561;42.666;23.392;2022-10-03T02:07:10;95143.06;;;11.22;100.00
3102;BME280;1561;42.666;23.392;2022-10-03T02:09:55;95136.53;;;11.29;100.00
3102;BME280;1561;42.666;23.392;2022-10-03T02:12:40;95136.16;;;11.43;100.00
3102;BME280;1561;42.666;23.392;2022-10-03T02:15:18;95125.78;;;11.44;100.00
3102;BME280;1561;42.666;23.392;2022-10-03T02:17:57;95135.44;;;11.61;100.00
3102;BME280;1561;42.666;23.392;2022-10-03T02:20:35;95145.66;;;11.61;100.00
3102;BME280;1561;42.666;23.392;2022-10-03T02:23:36;95143.22;;;11.20;100.00
3102;BME280;1561;42.666;23.392;2022-10-03T02:26:29;95154.00;;;10.94;100.00
3102;BME280;1561;42.666;23.392;2022-10-03T02:29:22;95160.88;;;10.73;100.00
3102;BME280;1561;42.666;23.392;2022-10-03T02:32:09;95160.00;;;10.63;100.00
3102;BME280;1561;42.666;23.392;2022-10-03T02:35:04;95153.72;;;10.46;100.00
3102;BME280;1561;42.666;23.392;2022-10-03T02:38:13;95155.41;;;10.36;100.00
3102;BME280;1561;42.666;23.392;2022-10-03T02:41:21;95163.13;;;10.46;100.00
3102;BME280;1561;42.666;23.392;2022-10-03T02:44:27;95161.50;;;10.45;100.00
3102;BME280;1561;42.666;23.392;2022-10-03T02:50:57;95154.69;;;10.75;100.00
3102;BME280;1561;42.666;23.392;2022-10-03T03:03:17;95159.78;;;10.45;100.00
3102;BME280;1561;42.666;23.392;2022-10-03T03:09:43;95150.13;;;10.49;100.00
3102;BME280;1561;42.666;23.392;2022-10-03T03:12:42;95155.72;;;10.43;100.00
3102;BME280;1561;42.666;23.392;2022-10-03T03:16:01;95148.81;;;10.34;100.00
3102;BME280;1561;42.666;23.392;2022-10-03T03:21:50;95156.28;;;10.46;100.00
3102;BME280;1561;42.666;23.392;2022-10-03T03:24:45;95086.28;;;9.97;100.00
3102;BME280;1561;42.666;23.392;2022-10-03T03:27:31;95144.44;;;10.25;100.00
3102;BME280;1561;42.666;23.392;2022-10-03T03:30:17;95129.25;;;10.23;100.00
3102;BME280;1561;42.666;23.392;2022-10-03T03:32:59;95135.09;;;10.35;100.00
3102;BME280;1561;42.666;23.392;2022-10-03T03:35:38;95144.88;;;10.50;100.00
3102;BME280;1561;42.666;23.392;2022-10-03T03:38:23;95119.41;;;10.39;100.00
3102;BME280;1561;42.666;23.392;2022-10-03T03:41:20;95130.63;;;10.48;100.00
3102;BME280;1561;42.666;23.392;2022-10-03T03:47:14;95117.97;;;10.67;100.00
3102;BME280;1561;42.666;23.392;2022-10-03T03:50:00;95125.63;;;10.67;100.00
3102;BME280;1561;42.666;23.392;2022-10-03T03:52:49;95128.91;;;10.78;100.00
3102;BME280;1561;42.666;23.392;2022-10-03T03:55:49;95120.81;;;10.73;100.00
3102;BME280;1561;42.666;23.392;2022-10-03T03:58:32;95125.16;;;10.82;100.00
3102;BME280;1561;42.666;23.392;2022-10-03T04:01:14;95067.66;;;10.37;100.00
3102;BME280;1561;42.666;23.392;2022-10-03T04:03:59;95110.34;;;10.76;100.00
3102;BME280;1561;42.666;23.392;2022-10-03T04:06:50;95122.13;;;10.98;100.00
3102;BME280;1561;42.666;23.392;2022-10-03T04:09:37;95110.31;;;11.06;100.00
3102;BME280;1561;42.666;23.392;2022-10-03T04:12:23;95107.81;;;11.16;100.00
3102;BME280;1561;42.666;23.392;2022-10-03T04:15:22;95114.59;;;10.96;100.00
3102;BME280;1561;42.666;23.392;2022-10-03T04:18:11;95091.66;;;10.76;100.00
3102;BME280;1561;42.666;23.392;2022-10-03T04:21:14;95047.50;;;10.64;100.00
3102;BME280;1561;42.666;23.392;2022-10-03T04:24:02;95087.97;;;10.69;100.00
3102;BME280;1561;42.666;23.392;2022-10-03T04:26:47;95088.41;;;10.74;100.00
3102;BME280;1561;42.666;23.392;2022-10-03T04:29:45;95095.94;;;10.75;100.00
3102;BME280;1561;42.666;23.392;2022-10-03T04:32:48;95111.72;;;10.80;100.00
3102;BME280;1561;42.666;23.392;2022-10-03T04:38:58;95109.59;;;11.74;100.00
3102;BME280;1561;42.666;23.392;2022-10-03T04:41:41;95108.38;;;11.97;100.00
3102;BME280;1561;42.666;23.392;2022-10-03T04:44:26;95103.53;;;11.65;100.00
3102;BME280;1561;42.666;23.392;2022-10-03T04:47:02;95101.56;;;11.48;100.00
3102;BME280;1561;42.666;23.392;2022-10-03T04:49:41;95105.06;;;11.57;100.00
3102;BME280;1561;42.666;23.392;2022-10-03T04:52:20;95114.03;;;11.32;100.00
3102;BME280;1561;42.666;23.392;2022-10-03T04:55:02;95083.44;;;11.12;100.00
3102;BME280;1561;42.666;23.392;2022-10-03T04:57:44;95106.97;;;11.06;100.00
3102;BME280;1561;42.666;23.392;2022-10-03T05:00:28;95107.81;;;10.86;100.00
3102;BME280;1561;42.666;23.392;2022-10-03T05:03:11;95050.53;;;10.88;100.00
3102;BME280;1561;42.666;23.392;2022-10-03T05:05:51;95099.53;;;11.33;100.00
3102;BME280;1561;42.666;23.392;2022-10-03T05:08:30;95110.53;;;11.24;100.00
3102;BME280;1561;42.666;23.392;2022-10-03T05:11:16;95042.81;;;10.69;100.00
3102;BME280;1561;42.666;23.392;2022-10-03T05:13:57;95110.84;;;11.00;100.00
3102;BME280;1561;42.666;23.392;2022-10-03T05:16:36;95116.03;;;11.19;100.00
3102;BME280;1561;42.666;23.392;2022-10-03T05:19:28;95112.88;;;11.06;100.00
3102;BME280;1561;42.666;23.392;2022-10-03T05:22:13;95111.47;;;11.32;100.00
3102;BME280;1561;42.666;23.392;2022-10-03T05:24:53;95114.31;;;11.39;100.00
3102;BME280;1561;42.666;23.392;2022-10-03T05:27:35;95114.53;;;11.56;100.00
3102;BME280;1561;42.666;23.392;2022-10-03T05:30:18;95112.75;;;11.57;100.00
3102;BME280;1561;42.666;23.392;2022-10-03T05:33:18;95113.53;;;11.48;100.00
3102;BME280;1561;42.666;23.392;2022-10-03T05:36:12;95084.47;;;11.58;100.00
3102;BME280;1561;42.666;23.392;2022-10-03T05:42:06;95071.75;;;11.96;100.00
3102;BME280;1561;42.666;23.392;2022-10-03T05:44:44;95062.81;;;12.29;100.00
3102;BME280;1561;42.666;23.392;2022-10-03T05:47:25;95051.44;;;12.50;100.00
3102;BME280;1561;42.666;23.392;2022-10-03T05:51:03;95076.09;;;12.61;100.00
3102;BME280;1561;42.666;23.392;2022-10-03T05:57:14;95072.56;;;13.97;100.00
3102;BME280;1561;42.666;23.392;2022-10-03T06:00:00;95086.84;;;13.64;100.00
3102;BME280;1561;42.666;23.392;2022-10-03T06:05:45;95090.50;;;13.62;100.00
3102;BME280;1561;42.666;23.392;2022-10-03T06:08:54;95089.09;;;13.50;100.00
3102;BME280;1561;42.666;23.392;2022-10-03T06:11:45;95042.38;;;13.99;100.00
3102;BME280;1561;42.666;23.392;2022-10-03T06:14:33;95078.41;;;14.93;100.00
3102;BME280;1561;42.666;23.392;2022-10-03T06:17:39;95083.69;;;14.66;100.00
3102;BME280;1561;42.666;23.392;2022-10-03T06:23:54;95096.41;;;13.89;100.00
3102;BME280;1561;42.666;23.392;2022-10-03T06:30:03;95126.81;;;13.84;100.00
3102;BME280;1561;42.666;23.392;2022-10-03T06:33:10;95112.16;;;13.59;100.00
3102;BME280;1561;42.666;23.392;2022-10-03T06:36:19;95105.13;;;13.79;100.00
3102;BME280;1561;42.666;23.392;2022-10-03T06:55:20;95119.88;;;13.94;100.00
3102;BME280;1561;42.666;23.392;2022-10-03T07:01:42;95127.19;;;13.27;100.00
3102;BME280;1561;42.666;23.392;2022-10-03T07:04:42;95143.31;;;13.10;100.00
3102;BME280;1561;42.666;23.392;2022-10-03T07:10:39;95148.88;;;12.87;100.00
3102;BME280;1561;42.666;23.392;2022-10-03T07:16:49;95163.50;;;13.23;100.00
3102;BME280;1561;42.666;23.392;2022-10-03T07:19:49;95175.50;;;13.22;100.00
3102;BME280;1561;42.666;23.392;2022-10-03T07:22:53;95184.75;;;13.06;100.00
3102;BME280;1561;42.666;23.392;2022-10-03T07:26:09;95187.75;;;12.63;100.00
3102;BME280;1561;42.666;23.392;2022-10-03T07:29:07;95205.56;;;12.36;100.00
3102;BME280;1561;42.666;23.392;2022-10-03T07:31:49;95204.63;;;12.37;100.00
3102;BME280;1561;42.666;23.392;2022-10-03T07:34:49;95216.47;;;12.67;100.00
3102;BME280;1561;42.666;23.392;2022-10-03T07:37:28;95209.75;;;12.37;100.00
3102;BME280;1561;42.666;23.392;2022-10-03T07:44:27;95231.03;;;12.19;100.00
3102;BME280;1561;42.666;23.392;2022-10-03T07:51:04;95212.06;;;12.21;100.00
3102;BME280;1561;42.666;23.392;2022-10-03T07:57:15;95222.56;;;12.47;100.00
3102;BME280;1561;42.666;23.392;2022-10-03T08:00:07;95217.44;;;12.56;100.00
3102;BME280;1561;42.666;23.392;2022-10-03T08:06:09;95228.91;;;13.00;100.00
3102;BME280;1561;42.666;23.392;2022-10-03T08:15:28;95219.66;;;13.26;100.00
3102;BME280;1561;42.666;23.392;2022-10-03T08:18:40;95219.88;;;13.42;100.00
3102;BME280;1561;42.666;23.392;2022-10-03T08:21:44;95225.09;;;13.50;100.00
3102;BME280;1561;42.666;23.392;2022-10-03T08:24:47;95222.28;;;13.43;100.00
3102;BME280;1561;42.666;23.392;2022-10-03T08:27:43;95228.91;;;13.73;100.00
3102;BME280;1561;42.666;23.392;2022-10-03T08:37:21;95231.09;;;13.41;100.00
3102;BME280;1561;42.666;23.392;2022-10-03T08:46:34;95225.09;;;13.86;100.00
3102;BME280;1561;42.666;23.392;2022-10-03T08:49:43;95235.19;;;14.24;100.00
3102;BME280;1561;42.666;23.392;2022-10-03T08:52:34;95222.63;;;14.12;100.00
3102;BME280;1561;42.666;23.392;2022-10-03T08:55:30;95229.59;;;14.29;100.00
3102;BME280;1561;42.666;23.392;2022-10-03T09:01:36;95233.06;;;14.55;100.00
3102;BME280;1561;42.666;23.392;2022-10-03T09:07:43;95202.44;;;15.97;100.00
3102;BME280;1561;42.666;23.392;2022-10-03T09:10:46;95218.06;;;16.53;100.00
3102;BME280;1561;42.666;23.392;2022-10-03T09:14:11;95213.59;;;16.05;100.00
3102;BME280;1561;42.666;23.392;2022-10-03T09:16:59;95199.97;;;15.79;100.00
3102;BME280;1561;42.666;23.392;2022-10-03T09:23:17;95201.56;;;16.30;100.00
3102;BME280;1561;42.666;23.392;2022-10-03T09:29:31;95206.94;;;16.52;100.00
3102;BME280;1561;42.666;23.392;2022-10-03T09:32:29;95206.00;;;16.12;100.00
3102;BME280;1561;42.666;23.392;2022-10-03T09:35:29;95213.84;;;15.53;100.00
3102;BME280;1561;42.666;23.392;2022-10-03T09:44:50;95216.53;;;15.77;100.00
3102;BME280;1561;42.666;23.392;2022-10-03T10:11:20;95186.47;;;16.51;100.00
3102;BME280;1561;42.666;23.392;2022-10-03T10:14:17;95183.09;;;16.51;100.00
3102;BME280;1561;42.666;23.392;2022-10-03T10:20:28;95177.09;;;17.06;100.00
3102;BME280;1561;42.666;23.392;2022-10-03T10:23:14;95122.63;;;16.21;100.00
3102;BME280;1561;42.666;23.392;2022-10-03T10:29:11;95197.75;;;16.82;100.00
3102;BME280;1561;42.666;23.392;2022-10-03T10:38:33;95181.09;;;17.25;100.00
3102;BME280;1561;42.666;23.392;2022-10-03T10:48:05;95177.41;;;17.03;100.00
3102;BME280;1561;42.666;23.392;2022-10-03T10:57:39;95196.44;;;17.42;100.00
3102;BME280;1561;42.666;23.392;2022-10-03T11:00:22;95175.88;;;17.95;100.00
3102;BME280;1561;42.666;23.392;2022-10-03T11:06:30;95187.41;;;18.68;100.00
3102;BME280;1561;42.666;23.392;2022-10-03T11:09:41;95187.09;;;19.08;100.00
3102;BME280;1561;42.666;23.392;2022-10-03T11:19:13;95187.94;;;18.03;100.00
3102;BME280;1561;42.666;23.392;2022-10-03T11:25:34;95182.28;;;16.98;100.00
3102;BME280;1561;42.666;23.392;2022-10-03T11:34:49;95185.38;;;17.64;100.00
3102;BME280;1561;42.666;23.392;2022-10-03T11:37:45;95193.25;;;16.84;100.00
3102;BME280;1561;42.666;23.392;2022-10-03T11:44:07;95174.06;;;16.79;100.00
3102;BME280;1561;42.666;23.392;2022-10-03T11:50:19;95122.28;;;16.80;100.00
3102;BME280;1561;42.666;23.392;2022-10-03T11:53:09;95174.69;;;16.97;100.00
3102;BME280;1561;42.666;23.392;2022-10-03T11:56:17;95160.69;;;16.83;100.00
3102;BME280;1561;42.666;23.392;2022-10-03T11:59:24;95173.41;;;16.69;100.00
3102;BME280;1561;42.666;23.392;2022-10-03T12:02:25;95180.53;;;16.59;100.00
3102;BME280;1561;42.666;23.392;2022-10-03T12:05:03;95158.44;;;16.48;100.00
3102;BME280;1561;42.666;23.392;2022-10-03T12:07:45;95178.97;;;16.16;100.00
3102;BME280;1561;42.666;23.392;2022-10-03T12:10:37;95136.56;;;15.94;100.00
3102;BME280;1561;42.666;23.392;2022-10-03T12:13:15;95164.56;;;16.63;100.00
3102;BME280;1561;42.666;23.392;2022-10-03T12:15:52;95160.69;;;16.83;100.00
3102;BME280;1561;42.666;23.392;2022-10-03T12:18:49;95143.41;;;16.84;100.00
3102;BME280;1561;42.666;23.392;2022-10-03T12:21:36;95147.44;;;17.02;100.00
3102;BME280;1561;42.666;23.392;2022-10-03T12:24:29;95150.78;;;17.19;100.00
3102;BME280;1561;42.666;23.392;2022-10-03T12:27:13;95145.31;;;17.14;100.00
3102;BME280;1561;42.666;23.392;2022-10-03T12:29:53;95071.97;;;16.84;100.00
3102;BME280;1561;42.666;23.392;2022-10-03T12:32:34;95164.34;;;17.05;100.00
3102;BME280;1561;42.666;23.392;2022-10-03T12:35:17;95164.19;;;16.98;100.00
3102;BME280;1561;42.666;23.392;2022-10-03T12:38:05;95151.59;;;17.11;100.00
3102;BME280;1561;42.666;23.392;2022-10-03T12:40:46;95151.59;;;17.19;100.00
3102;BME280;1561;42.666;23.392;2022-10-03T12:43:33;95112.19;;;17.25;100.00
3102;BME280;1561;42.666;23.392;2022-10-03T12:46:22;95145.47;;;17.67;99.59
3102;BME280;1561;42.666;23.392;2022-10-03T12:49:06;95150.22;;;17.55;100.00
3102;BME280;1561;42.666;23.392;2022-10-03T12:51:55;95080.78;;;17.06;96.62
3102;BME280;1561;42.666;23.392;2022-10-03T12:54:53;95152.19;;;17.37;95.31
3102;BME280;1561;42.666;23.392;2022-10-03T12:57:45;95153.31;;;17.35;91.50
3102;BME280;1561;42.666;23.392;2022-10-03T13:00:34;95159.81;;;17.77;90.33
3102;BME280;1561;42.666;23.392;2022-10-03T13:03:20;95159.56;;;17.95;91.50
3102;BME280;1561;42.666;23.392;2022-10-03T13:06:36;95170.16;;;18.08;89.94
3102;BME280;1561;42.666;23.392;2022-10-03T13:09:28;95163.53;;;18.05;87.88
3102;BME280;1561;42.666;23.392;2022-10-03T13:12:04;95177.06;;;17.85;87.69
3102;BME280;1561;42.666;23.392;2022-10-03T13:14:45;95144.19;;;17.71;87.00
3102;BME280;1561;42.666;23.392;2022-10-03T13:17:47;95175.88;;;17.57;86.95
3102;BME280;1561;42.666;23.392;2022-10-03T13:20:31;95164.97;;;17.77;87.31
3102;BME280;1561;42.666;23.392;2022-10-03T13:23:32;95170.41;;;17.52;87.48
3102;BME280;1561;42.666;23.392;2022-10-03T13:26:11;95160.63;;;17.23;90.47
3102;BME280;1561;42.666;23.392;2022-10-03T13:29:13;95138.00;;;17.25;90.84
3102;BME280;1561;42.666;23.392;2022-10-03T13:32:01;95145.31;;;17.06;93.47
3102;BME280;1561;42.666;23.392;2022-10-03T13:34:58;95161.28;;;17.09;88.28
3102;BME280;1561;42.666;23.392;2022-10-03T13:38:19;95165.13;;;17.21;81.62
3102;BME280;1561;42.666;23.392;2022-10-03T13:40:58;95152.78;;;16.77;81.42
3102;BME280;1561;42.666;23.392;2022-10-03T13:43:54;95154.06;;;16.57;81.25
3102;BME280;1561;42.666;23.392;2022-10-03T13:47:02;95152.44;;;16.80;81.95
3102;BME280;1561;42.666;23.392;2022-10-03T13:49:45;95135.19;;;16.56;82.05
3102;BME280;1561;42.666;23.392;2022-10-03T13:52:25;95146.34;;;16.65;84.83
3102;BME280;1561;42.666;23.392;2022-10-03T13:55:22;95164.38;;;16.65;83.53
3102;BME280;1561;42.666;23.392;2022-10-03T14:01:44;95166.16;;;16.72;87.83
3102;BME280;1561;42.666;23.392;2022-10-03T14:04:43;95156.81;;;16.55;91.01
3102;BME280;1561;42.666;23.392;2022-10-03T14:07:28;95142.63;;;16.51;90.78
3102;BME280;1561;42.666;23.392;2022-10-03T14:10:08;95175.03;;;16.70;90.05
3102;BME280;1561;42.666;23.392;2022-10-03T14:13:11;95160.69;;;16.67;90.26
3102;BME280;1561;42.666;23.392;2022-10-03T14:15:50;95158.59;;;16.55;83.99
3102;BME280;1561;42.666;23.392;2022-10-03T14:18:44;95146.00;;;16.43;88.57
3102;BME280;1561;42.666;23.392;2022-10-03T14:24:20;95163.50;;;16.24;86.62
3102;BME280;1561;42.666;23.392;2022-10-03T14:27:00;95166.41;;;16.29;88.34
3102;BME280;1561;42.666;23.392;2022-10-03T14:29:43;95172.53;;;16.20;87.76
3102;BME280;1561;42.666;23.392;2022-10-03T14:32:20;95180.00;;;16.39;87.88
3102;BME280;1561;42.666;23.392;2022-10-03T14:34:56;95169.66;;;16.31;85.97
3102;BME280;1561;42.666;23.392;2022-10-03T14:37:47;95173.34;;;16.20;85.65
3102;BME280;1561;42.666;23.392;2022-10-03T14:40:25;95139.81;;;16.04;84.75
3102;BME280;1561;42.666;23.392;2022-10-03T14:43:09;95119.56;;;15.60;85.83
3102;BME280;1561;42.666;23.392;2022-10-03T14:45:54;95184.22;;;15.90;86.38
3102;BME280;1561;42.666;23.392;2022-10-03T14:48:27;95187.44;;;15.84;87.97
3102;BME280;1561;42.666;23.392;2022-10-03T14:51:08;95158.56;;;15.81;89.21
3102;BME280;1561;42.666;23.392;2022-10-03T14:53:37;95183.88;;;15.85;90.80
3102;BME280;1561;42.666;23.392;2022-10-03T14:56:07;95167.69;;;15.59;94.23
3102;BME280;1561;42.666;23.392;2022-10-03T14:58:53;95186.34;;;15.53;99.58
3102;BME280;1561;42.666;23.392;2022-10-03T15:01:26;95188.97;;;15.36;100.00
3102;BME280;1561;42.666;23.392;2022-10-03T15:04:02;95188.00;;;15.11;100.00
3102;BME280;1561;42.666;23.392;2022-10-03T15:06:48;95180.22;;;15.03;100.00
3102;BME280;1561;42.666;23.392;2022-10-03T15:09:22;95117.84;;;14.76;100.00
3102;BME280;1561;42.666;23.392;2022-10-03T15:12:04;95160.88;;;14.91;100.00
3102;BME280;1561;42.666;23.392;2022-10-03T15:14:38;95189.88;;;15.01;100.00
3102;BME280;1561;42.666;23.392;2022-10-03T15:17:16;95183.88;;;14.93;100.00
3102;BME280;1561;42.666;23.392;2022-10-03T15:19:52;95161.38;;;14.95;100.00
3102;BME280;1561;42.666;23.392;2022-10-03T15:22:29;95188.06;;;14.94;100.00
3102;BME280;1561;42.666;23.392;2022-10-03T15:25:06;95203.03;;;14.98;100.00
3102;BME280;1561;42.666;23.392;2022-10-03T15:27:39;95178.94;;;14.99;100.00
3102;BME280;1561;42.666;23.392;2022-10-03T15:30:18;95185.34;;;14.95;100.00
3102;BME280;1561;42.666;23.392;2022-10-03T15:33:05;95185.06;;;14.81;100.00
3102;BME280;1561;42.666;23.392;2022-10-03T15:35:44;95190.50;;;14.78;100.00
3102;BME280;1561;42.666;23.392;2022-10-03T15:38:19;95202.38;;;14.79;100.00
3102;BME280;1561;42.666;23.392;2022-10-03T15:41:06;95181.56;;;14.64;100.00
3102;BME280;1561;42.666;23.392;2022-10-03T15:43:41;95203.75;;;14.65;100.00
3102;BME280;1561;42.666;23.392;2022-10-03T15:46:17;95202.41;;;14.44;100.00
3102;BME280;1561;42.666;23.392;2022-10-03T15:49:06;95209.69;;;14.31;100.00
3102;BME280;1561;42.666;23.392;2022-10-03T15:51:39;95222.63;;;14.21;100.00
3102;BME280;1561;42.666;23.392;2022-10-03T15:54:17;95225.03;;;14.23;100.00
3102;BME280;1561;42.666;23.392;2022-10-03T15:56:56;95210.38;;;14.06;100.00
3102;BME280;1561;42.666;23.392;2022-10-03T15:59:32;95197.50;;;13.88;100.00
3102;BME280;1561;42.666;23.392;2022-10-03T16:02:15;95216.06;;;14.00;100.00
3102;BME280;1561;42.666;23.392;2022-10-03T16:05:02;95242.06;;;13.97;100.00
3102;BME280;1561;42.666;23.392;2022-10-03T16:07:48;95241.53;;;13.93;100.00
3102;BME280;1561;42.666;23.392;2022-10-03T16:10:22;95242.94;;;13.88;100.00
3102;BME280;1561;42.666;23.392;2022-10-03T16:12:58;95267.78;;;13.87;100.00
3102;BME280;1561;42.666;23.392;2022-10-03T16:15:40;95266.69;;;13.90;100.00
3102;BME280;1561;42.666;23.392;2022-10-03T16:18:56;95262.13;;;13.84;100.00
3102;BME280;1561;42.666;23.392;2022-10-03T16:22:10;95270.50;;;13.86;100.00
3102;BME280;1561;42.666;23.392;2022-10-03T16:24:56;95277.78;;;13.90;100.00
3102;BME280;1561;42.666;23.392;2022-10-03T16:27:31;95284.78;;;13.98;100.00
3102;BME280;1561;42.666;23.392;2022-10-03T16:30:19;95291.56;;;13.89;100.00
3102;BME280;1561;42.666;23.392;2022-10-03T16:32:57;95299.13;;;13.91;100.00
3102;BME280;1561;42.666;23.392;2022-10-03T16:35:32;95300.59;;;13.93;100.00
3102;BME280;1561;42.666;23.392;2022-10-03T16:38:19;95284.66;;;13.90;100.00
3102;BME280;1561;42.666;23.392;2022-10-03T16:41:20;95289.69;;;13.82;100.00
3102;BME280;1561;42.666;23.392;2022-10-03T16:44:18;95314.38;;;13.92;100.00
3102;BME280;1561;42.666;23.392;2022-10-03T16:47:03;95289.56;;;13.83;100.00
3102;BME280;1561;42.666;23.392;2022-10-03T16:49:54;95313.59;;;13.92;100.00
3102;BME280;1561;42.666;23.392;2022-10-03T16:52:47;95321.56;;;13.89;100.00
3102;BME280;1561;42.666;23.392;2022-10-03T16:55:27;95304.81;;;13.85;100.00
3102;BME280;1561;42.666;23.392;2022-10-03T16:58:03;95309.56;;;13.80;100.00
3102;BME280;1561;42.666;23.392;2022-10-03T17:00:41;95319.97;;;13.78;100.00
3102;BME280;1561;42.666;23.392;2022-10-03T17:03:18;95257.44;;;13.33;100.00
3102;BME280;1561;42.666;23.392;2022-10-03T17:05:55;95199.22;;;12.97;100.00
3102;BME280;1561;42.666;23.392;2022-10-03T17:08:29;95325.00;;;13.70;100.00
3102;BME280;1561;42.666;23.392;2022-10-03T17:11:07;95314.09;;;13.59;100.00
3102;BME280;1561;42.666;23.392;2022-10-03T17:13:41;95317.19;;;13.62;100.00
3102;BME280;1561;42.666;23.392;2022-10-03T17:16:33;95324.75;;;13.64;100.00
3102;BME280;1561;42.666;23.392;2022-10-03T17:19:44;95314.91;;;13.59;100.00
3102;BME280;1561;42.666;23.392;2022-10-03T17:22:21;95326.53;;;13.63;100.00
3102;BME280;1561;42.666;23.392;2022-10-03T17:24:58;95319.50;;;13.56;100.00
3102;BME280;1561;42.666;23.392;2022-10-03T17:27:36;95327.72;;;13.69;100.00
3102;BME280;1561;42.666;23.392;2022-10-03T17:30:23;95333.53;;;13.71;100.00
3102;BME280;1561;42.666;23.392;2022-10-03T17:33:14;95328.84;;;13.57;100.00
3102;BME280;1561;42.666;23.392;2022-10-03T17:35:55;95340.31;;;13.53;100.00
3102;BME280;1561;42.666;23.392;2022-10-03T17:38:47;95332.38;;;13.46;100.00
3102;BME280;1561;42.666;23.392;2022-10-03T17:41:22;95321.06;;;13.30;100.00
3102;BME280;1561;42.666;23.392;2022-10-03T17:44:10;95336.84;;;13.35;100.00
3102;BME280;1561;42.666;23.392;2022-10-03T17:46:49;95335.78;;;13.28;100.00
3102;BME280;1561;42.666;23.392;2022-10-03T17:49:22;95332.25;;;13.29;100.00
3102;BME280;1561;42.666;23.392;2022-10-03T17:51:56;95334.84;;;13.19;100.00
3102;BME280;1561;42.666;23.392;2022-10-03T17:54:27;95332.53;;;13.16;100.00
3102;BME280;1561;42.666;23.392;2022-10-03T17:57:00;95334.56;;;13.13;100.00
3102;BME280;1561;42.666;23.392;2022-10-03T17:59:36;95338.88;;;13.12;100.00
3102;BME280;1561;42.666;23.392;2022-10-03T18:02:19;95345.09;;;13.10;100.00
3102;BME280;1561;42.666;23.392;2022-10-03T18:04:52;95339.31;;;13.08;100.00
3102;BME280;1561;42.666;23.392;2022-10-03T18:07:23;95337.81;;;13.05;100.00
3102;BME280;1561;42.666;23.392;2022-10-03T18:09:55;95325.66;;;12.98;100.00
3102;BME280;1561;42.666;23.392;2022-10-03T18:12:28;95335.91;;;12.98;100.00
3102;BME280;1561;42.666;23.392;2022-10-03T18:18:39;95325.09;;;12.85;100.00
3102;BME280;1561;42.666;23.392;2022-10-03T18:21:19;95322.38;;;12.86;100.00
3102;BME280;1561;42.666;23.392;2022-10-03T18:24:09;95336.97;;;12.86;100.00
3102;BME280;1561;42.666;23.392;2022-10-03T18:26:44;95344.94;;;12.83;100.00
3102;BME280;1561;42.666;23.392;2022-10-03T18:29:21;95339.81;;;12.83;100.00